Artemus, Kentucky
Current Conditions -  °F | °C
As of 5:35 PM on Monday 26 Jan 2015 (Local Time) from K1A6 Reporting Station
Overcast Overcast  
Wind Chill: 30°   Ceiling: 1400
Heat Index: 30°   Visibility: 10mi
Dew Point: 26°   Wind: 0mph
Humidity: 85%   Direction: NA
Pressure: 29.92"   Gusts: NA
Location:  36.83°N, 83.84°W
Report Text: K1A6 262235Z AUTO 00000KT 10SM OVC014 M01/M03 A2992 RMK AO2 T10101033
Loading
Personal Weather Stations






























Interactive Weather Map New forecast layout! Learn more

10-Day Weather Forecast

Advertisements
Track Severe Weather on mobile